Time,TemperatureF,DewpointF,PressureIn,WindDirection,WindDirectionDegrees,WindSpeedMPH,WindSpeedGustMPH,Humidity,HourlyPrecipIn,Conditions,Clouds,dailyrainin,SoftwareType,DateUTC
2013-02-17 00:33:00,28.0,16.0,-100.00,NNE,20,10.0,20.0,61,-99.99,,,-99.99,,2013-02-17 05:33:00,
2013-02-17 00:42:00,28.0,17.0,-100.00,NNE,20,10.0,16.0,64,-99.99,,,-99.99,,2013-02-17 05:42:00,
2013-02-17 00:52:00,27.0,18.0,-100.00,North,350,7.0,16.0,66,-99.99,,,-99.99,,2013-02-17 05:52:00,
2013-02-17 01:02:00,27.0,18.0,-100.00,North,10,7.0,17.0,70,-99.99,,,-99.99,,2013-02-17 06:02:00,
2013-02-17 01:11:00,26.0,19.0,-100.00,North,0,7.0,15.0,74,-99.99,,,-99.99,,2013-02-17 06:11:00,
2013-02-17 01:21:00,26.0,20.0,-100.00,North,350,5.0,15.0,76,-99.99,,,-99.99,,2013-02-17 06:21:00,
2013-02-17 01:32:00,26.0,19.0,-100.00,NNE,20,7.0,17.0,75,-99.99,,,-99.99,,2013-02-17 06:32:00,
2013-02-17 01:42:00,26.0,18.0,-100.00,North,10,7.0,15.0,74,-99.99,,,-99.99,,2013-02-17 06:42:00,
2013-02-17 01:51:00,25.0,18.0,-100.00,NNW,340,7.0,15.0,74,-99.99,,,-99.99,,2013-02-17 06:51:00,
2013-02-17 02:01:00,25.0,18.0,-100.00,NNE,15,8.0,17.0,75,-99.99,,,-99.99,,2013-02-17 07:01:00,
2013-02-17 02:11:00,25.0,18.0,-100.00,NNE,15,5.0,13.0,76,-99.99,,,-99.99,,2013-02-17 07:11:00,
2013-02-17 02:21:00,24.0,18.0,-100.00,NNE,20,7.0,17.0,75,-99.99,,,-99.99,,2013-02-17 07:21:00,
2013-02-17 02:32:00,24.0,16.0,-100.00,North,350,7.0,20.0,70,-99.99,,,-99.99,,2013-02-17 07:32:00,
2013-02-17 02:42:00,24.0,16.0,-100.00,North,0,9.0,18.0,70,-99.99,,,-99.99,,2013-02-17 07:42:00,
2013-02-17 02:51:00,23.0,15.0,-100.00,North,5,9.0,18.0,71,-99.99,,,-99.99,,2013-02-17 07:51:00,
2013-02-17 03:01:00,23.0,15.0,-100.00,NNE,15,3.0,22.0,72,-99.99,,,-99.99,,2013-02-17 08:01:00,
2013-02-17 03:11:00,23.0,15.0,-100.00,North,350,7.0,14.0,72,-99.99,,,-99.99,,2013-02-17 08:11:00,
2013-02-17 03:22:00,23.0,15.0,-100.00,North,10,6.0,16.0,70,-99.99,,,-99.99,,2013-02-17 08:22:00,
2013-02-17 03:32:00,23.0,14.0,-100.00,NNW,345,7.0,15.0,68,-99.99,,,-99.99,,2013-02-17 08:32:00,
2013-02-17 03:42:00,23.0,14.0,-100.00,North,10,5.0,15.0,69,-99.99,,,-99.99,,2013-02-17 08:42:00,
2013-02-17 03:52:00,23.0,14.0,-100.00,North,355,7.0,16.0,68,-99.99,,,-99.99,,2013-02-17 08:52:00,
2013-02-17 04:02:00,23.0,14.0,-100.00,NNE,30,7.0,21.0,68,-99.99,,,-99.99,,2013-02-17 09:02:00,
2013-02-17 04:11:00,22.0,13.0,-100.00,NNW,335,10.0,17.0,66,-99.99,,,-99.99,,2013-02-17 09:11:00,
2013-02-17 04:21:00,22.0,13.0,-100.00,NNE,15,5.0,22.0,66,-99.99,,,-99.99,,2013-02-17 09:21:00,
2013-02-17 04:32:00,22.0,13.0,-100.00,North,0,7.0,24.0,68,-99.99,,,-99.99,,2013-02-17 09:32:00,
2013-02-17 04:42:00,21.0,13.0,-100.00,NNW,340,13.0,27.0,70,-99.99,,,-99.99,,2013-02-17 09:42:00,
2013-02-17 04:51:00,21.0,14.0,-100.00,North,10,9.0,20.0,72,-99.99,,,-99.99,,2013-02-17 09:51:00,
2013-02-17 05:01:00,21.0,14.0,-100.00,NNW,335,9.0,22.0,73,-99.99,,,-99.99,,2013-02-17 10:01:00,
2013-02-17 05:11:00,21.0,13.0,-100.00,NNW,335,9.0,18.0,72,-99.99,,,-99.99,,2013-02-17 10:11:00,
2013-02-17 05:22:00,21.0,13.0,-100.00,NNW,335,9.0,18.0,72,-99.99,,,-99.99,,2013-02-17 10:22:00,
2013-02-17 05:32:00,21.0,14.0,-100.00,North,355,7.0,18.0,73,-99.99,,,-99.99,,2013-02-17 10:32:00,
2013-02-17 05:42:00,20.0,14.0,-100.00,NNW,330,8.0,15.0,76,-99.99,,,-99.99,,2013-02-17 10:42:00,
2013-02-17 05:52:00,20.0,14.0,-100.00,North,5,9.0,20.0,77,-99.99,,,-99.99,,2013-02-17 10:52:00,
2013-02-17 06:01:00,20.0,14.0,-100.00,NNW,340,12.0,21.0,79,-99.99,,,-99.99,,2013-02-17 11:01:00,
2013-02-17 06:11:00,19.0,15.0,-100.00,North,355,10.0,22.0,85,-99.99,,,-99.99,,2013-02-17 11:11:00,
2013-02-17 06:22:00,19.0,16.0,-100.00,NNW,340,13.0,23.0,88,-99.99,,,-99.99,,2013-02-17 11:22:00,
2013-02-17 06:32:00,18.0,16.0,-100.00,NNW,340,14.0,23.0,90,-99.99,,,-99.99,,2013-02-17 11:32:00,
2013-02-17 06:42:00,18.0,16.0,-100.00,NNW,340,9.0,21.0,90,-99.99,,,-99.99,,2013-02-17 11:42:00,
2013-02-17 06:52:00,18.0,16.0,-100.00,NNW,330,10.0,22.0,91,-99.99,,,-99.99,,2013-02-17 11:52:00,
2013-02-17 07:03:00,18.0,16.0,-100.00,NNW,335,9.0,16.0,91,-99.99,,,-99.99,,2013-02-17 12:03:00,
2013-02-17 07:11:00,18.0,15.0,-100.00,North,355,10.0,25.0,90,-99.99,,,-99.99,,2013-02-17 12:11:00,
2013-02-17 07:22:00,18.0,15.0,-100.00,NNW,345,7.0,20.0,90,-99.99,,,-99.99,,2013-02-17 12:22:00,
2013-02-17 07:32:00,17.0,15.0,-100.00,NNW,330,9.0,21.0,90,-99.99,,,-99.99,,2013-02-17 12:32:00,
2013-02-17 07:42:00,17.0,15.0,-100.00,NNW,345,12.0,20.0,90,-99.99,,,-99.99,,2013-02-17 12:42:00,
2013-02-17 07:52:00,17.0,15.0,-100.00,NNW,345,13.0,20.0,90,-99.99,,,-99.99,,2013-02-17 12:52:00,
2013-02-17 08:02:00,17.0,15.0,-100.00,NNW,340,17.0,35.0,90,-99.99,,,-99.99,,2013-02-17 13:02:00,
2013-02-17 08:12:00,17.0,15.0,-100.00,NNW,335,9.0,22.0,90,-99.99,,,-99.99,,2013-02-17 13:12:00,
2013-02-17 08:22:00,17.0,15.0,-100.00,NNW,335,8.0,17.0,90,-99.99,,,-99.99,,2013-02-17 13:22:00,
2013-02-17 08:32:00,17.0,15.0,-100.00,NNW,335,8.0,17.0,90,-99.99,,,-99.99,,2013-02-17 13:32:00,
2013-02-17 08:42:00,17.0,14.0,-100.00,NNW,335,13.0,20.0,89,-99.99,,,-99.99,,2013-02-17 13:42:00,
2013-02-17 08:52:00,17.0,14.0,-100.00,NNW,330,15.0,27.0,89,-99.99,,,-99.99,,2013-02-17 13:52:00,
2013-02-17 09:01:00,17.0,14.0,-100.00,NW,325,13.0,27.0,89,-99.99,,,-99.99,,2013-02-17 14:01:00,
2013-02-17 09:11:00,17.0,14.0,-100.00,NNW,330,16.0,24.0,88,-99.99,,,-99.99,,2013-02-17 14:11:00,
2013-02-17 09:22:00,17.0,14.0,-100.00,NNW,335,14.0,31.0,88,-99.99,,,-99.99,,2013-02-17 14:22:00,
2013-02-17 09:32:00,17.0,14.0,-100.00,NW,325,12.0,21.0,88,-99.99,,,-99.99,,2013-02-17 14:32:00,
2013-02-17 09:42:00,17.0,14.0,-100.00,NNW,345,13.0,23.0,88,-99.99,,,-99.99,,2013-02-17 14:42:00,
2013-02-17 09:52:00,17.0,14.0,-100.00,NNW,330,12.0,22.0,87,-99.99,,,-99.99,,2013-02-17 14:52:00,
2013-02-17 10:02:00,17.0,13.0,-100.00,NNW,330,17.0,25.0,86,-99.99,,,-99.99,,2013-02-17 15:02:00,
2013-02-17 10:11:00,17.0,13.0,-100.00,NW,325,14.0,24.0,84,-99.99,,,-99.99,,2013-02-17 15:11:00,
2013-02-17 10:22:00,17.0,13.0,-100.00,NNW,335,15.0,33.0,82,-99.99,,,-99.99,,2013-02-17 15:22:00,
2013-02-17 10:30:00,19.0,10.0,-100.00,NNW,335,21.0,33.0,68,-99.99,,,-99.99,,2013-02-17 15:30:00,
2013-02-17 10:32:00,18.0,12.0,-100.00,NNW,335,9.0,22.0,78,-99.99,,,-99.99,,2013-02-17 15:32:00,
2013-02-17 10:42:00,18.0,12.0,-100.00,NW,320,16.0,30.0,77,-99.99,,,-99.99,,2013-02-17 15:42:00,
2013-02-17 10:52:00,18.0,12.0,-100.00,NNW,330,14.0,33.0,76,-99.99,,,-99.99,,2013-02-17 15:52:00,
2013-02-17 11:01:00,18.0,12.0,-100.00,NNW,330,14.0,33.0,76,-99.99,,,-99.99,,2013-02-17 16:01:00,
2013-02-17 11:12:00,19.0,10.0,-100.00,NNW,335,21.0,33.0,68,-99.99,,,-99.99,,2013-02-17 16:12:00,
2013-02-17 11:22:00,19.0,10.0,-100.00,NNW,335,21.0,33.0,68,-99.99,,,-99.99,,2013-02-17 16:22:00,
2013-02-17 11:42:00,20.0,8.0,-100.00,NW,320,18.0,28.0,59,-99.99,,,-99.99,,2013-02-17 16:42:00,
2013-02-17 11:52:00,21.0,8.0,-100.00,NW,320,16.0,32.0,57,-99.99,,,-99.99,,2013-02-17 16:52:00,
2013-02-17 12:02:00,21.0,8.0,-100.00,NW,325,22.0,32.0,56,-99.99,,,-99.99,,2013-02-17 17:02:00,
2013-02-17 12:11:00,21.0,7.0,-100.00,NNW,340,17.0,35.0,54,-99.99,,,-99.99,,2013-02-17 17:11:00,
2013-02-17 12:21:00,21.0,7.0,-100.00,NNW,340,15.0,37.0,53,-99.99,,,-99.99,,2013-02-17 17:21:00,
2013-02-17 12:52:00,22.0,5.0,-100.00,NW,320,18.0,41.0,48,-99.99,,,-99.99,,2013-02-17 17:52:00,
2013-02-17 13:02:00,22.0,5.0,-100.00,NW,325,18.0,39.0,48,-99.99,,,-99.99,,2013-02-17 18:02:00,
2013-02-17 13:11:00,22.0,5.0,-100.00,NW,325,25.0,38.0,49,-99.99,,,-99.99,,2013-02-17 18:11:00,
2013-02-17 13:22:00,21.0,5.0,-100.00,NW,320,23.0,33.0,49,-99.99,,,-99.99,,2013-02-17 18:22:00,
2013-02-17 13:33:00,21.0,5.0,-100.00,NW,325,15.0,31.0,49,-99.99,,,-99.99,,2013-02-17 18:33:00,
2013-02-17 13:42:00,21.0,5.0,-100.00,NW,325,17.0,33.0,49,-99.99,,,-99.99,,2013-02-17 18:42:00,
2013-02-17 13:52:00,21.0,5.0,-100.00,NW,325,17.0,33.0,49,-99.99,,,-99.99,,2013-02-17 18:52:00,
2013-02-17 14:02:00,21.0,4.0,-100.00,NW,325,20.0,43.0,48,-99.99,,,-99.99,,2013-02-17 19:02:00,
2013-02-17 14:11:00,21.0,4.0,-100.00,NW,320,22.0,36.0,47,-99.99,,,-99.99,,2013-02-17 19:11:00,
2013-02-17 14:22:00,21.0,3.0,-100.00,NW,325,24.0,41.0,46,-99.99,,,-99.99,,2013-02-17 19:22:00,
2013-02-17 14:32:00,21.0,3.0,-100.00,NW,320,22.0,32.0,45,-99.99,,,-99.99,,2013-02-17 19:32:00,
2013-02-17 17:32:00,22.0,2.0,-100.00,NNW,330,21.0,30.0,41,-99.99,,,-99.99,,2013-02-17 22:32:00,
2013-02-17 18:32:00,22.0,2.0,-100.00,NW,320,22.0,32.0,42,-99.99,,,-99.99,,2013-02-17 23:32:00,
2013-02-17 23:32:00,16.0,-1.0,-100.00,NW,305,17.0,32.0,46,-99.99,,,-99.99,,2013-02-18 04:32:00,